Medimont, Idaho
Current Conditions -  °F | °C
As of 4:55 PM on Wednesday 17 Dec 2014 (Local Time) from KCOE Reporting Station
Overcast Overcast  
Wind Chill: 30°   Ceiling: 4300
Heat Index: 36°   Visibility: 10mi
Dew Point: 30°   Wind: 7mph
Humidity: 81%   Direction: 50°NE
Pressure: 29.92"   Gusts: NA
Location:  47.48°N, 116.6°W
Report Text: KCOE 180055Z AUTO 05006KT 10SM SCT034 OVC043 02/M01 A2992 RMK AO1
Loading
Personal Weather Stations






























Interactive Weather Map New forecast layout! Learn more

10-Day Weather Forecast

Advertisements
Track Severe Weather on mobile